Time;durP1;ratioP1;P1;durP2;ratioP2;P2;SDS_P1;SDS_P2;PMS_P1;PMS_P2;Temp;Humidity;BMP_temperature;BMP_pressure;BME280_temperature;BME280_humidity;BME280_pressure;Samples;Min_cycle;Max_cycle;Signal;HPM_P1;HPM_P2
2022/08/26 00:00:41;;;;;;;10.95;4.85;;;20.40;99.90;;;;;;4807750;29;19928;-82
2022/08/26 00:03:07;;;;;;;8.05;4.72;;;20.40;99.90;;;;;;4807841;29;20118;-81
2022/08/26 00:05:34;;;;;;;11.60;4.40;;;20.30;99.90;;;;;;4808029;29;20148;-82
2022/08/26 00:08:06;;;;;;;8.40;4.35;;;20.40;99.90;;;;;;4809651;29;20023;-81
2022/08/26 00:10:31;;;;;;;11.05;5.05;;;20.20;99.90;;;;;;4807865;29;20487;-81
2022/08/26 00:12:58;;;;;;;8.25;3.42;;;20.10;99.90;;;;;;4809129;29;20035;-81
2022/08/26 00:15:25;;;;;;;8.73;3.75;;;20.20;99.90;;;;;;4811600;29;20046;-81
2022/08/26 00:17:52;;;;;;;6.20;3.65;;;20.00;99.90;;;;;;4811864;29;20073;-81
2022/08/26 00:20:25;;;;;;;5.10;2.20;;;20.10;99.90;;;;;;4813364;29;20060;-82
2022/08/26 00:22:51;;;;;;;4.47;1.58;;;20.10;99.90;;;;;;4810971;29;20165;-81
2022/08/26 00:25:17;;;;;;;6.93;2.63;;;20.10;99.90;;;;;;4828413;29;20490;-81
2022/08/26 00:27:44;;;;;;;5.20;1.90;;;20.00;99.90;;;;;;4830142;29;20064;-81
2022/08/26 00:30:13;;;;;;;3.53;1.80;;;19.90;99.90;;;;;;4825356;29;20046;-81
2022/08/26 00:32:39;;;;;;;8.10;2.15;;;20.00;99.90;;;;;;4822011;29;20133;-82
2022/08/26 00:35:05;;;;;;;4.72;1.67;;;20.00;99.90;;;;;;4807032;29;20632;-82
2022/08/26 00:37:31;;;;;;;5.03;1.73;;;19.90;99.90;;;;;;4817401;29;20499;-82
2022/08/26 00:39:57;;;;;;;2.75;1.40;;;19.90;99.90;;;;;;4821009;29;20062;-82
2022/08/26 00:42:23;;;;;;;6.78;1.85;;;20.10;99.90;;;;;;4806808;29;20372;-81
2022/08/26 00:44:49;;;;;;;2.95;1.23;;;20.00;99.90;;;;;;4808422;29;20030;-81
2022/08/26 00:47:37;;;;;;;8.05;1.40;;;20.10;99.90;;;;;;4807372;29;20034;-82
2022/08/26 00:50:09;;;;;;;3.20;1.10;;;20.10;99.90;;;;;;4807112;29;20038;-82
2022/08/26 00:52:35;;;;;;;8.50;1.02;;;19.90;99.90;;;;;;4807009;29;20037;-81
2022/08/26 00:55:10;;;;;;;7.53;1.15;;;20.00;99.90;;;;;;4807066;29;20027;-82
2022/08/26 00:57:36;;;;;;;2.38;1.10;;;20.00;99.90;;;;;;4806675;29;20027;-82
2022/08/26 01:00:09;;;;;;;4.32;1.20;;;19.90;99.90;;;;;;4806711;29;20051;-82
2022/08/26 01:02:34;;;;;;;5.57;1.20;;;19.80;99.90;;;;;;4810580;29;20035;-81
2022/08/26 01:05:03;;;;;;;6.38;1.15;;;19.80;99.90;;;;;;4821499;29;20033;-82
2022/08/26 01:07:31;;;;;;;8.60;1.60;;;19.80;99.90;;;;;;4810809;29;20388;-82
2022/08/26 01:09:58;;;;;;;8.07;0.95;;;19.80;99.90;;;;;;4811099;29;20038;-82
2022/08/26 01:12:30;;;;;;;4.13;0.95;;;19.70;99.90;;;;;;4810734;29;20423;-81
2022/08/26 01:14:55;;;;;;;5.32;1.38;;;19.70;99.90;;;;;;4792319;29;20032;-81
2022/08/26 01:17:21;;;;;;;4.40;1.02;;;19.60;99.90;;;;;;4813480;29;20029;-82
2022/08/26 01:19:52;;;;;;;5.10;1.35;;;19.50;99.90;;;;;;4824958;29;20594;-82
2022/08/26 01:22:37;;;;;;;5.00;1.00;;;19.50;99.90;;;;;;4824474;29;20708;-82
2022/08/26 01:25:04;;;;;;;5.07;1.25;;;19.40;99.90;;;;;;4825018;29;20109;-81
2022/08/26 01:27:31;;;;;;;3.42;0.98;;;19.40;99.90;;;;;;4825833;29;20030;-82
2022/08/26 01:29:57;;;;;;;4.60;1.10;;;19.40;99.90;;;;;;4816178;29;20083;-82
2022/08/26 01:32:24;;;;;;;4.03;0.80;;;19.40;99.90;;;;;;4806404;29;20035;-82
2022/08/26 01:34:51;;;;;;;3.03;0.75;;;19.50;99.90;;;;;;4807284;29;20027;-83
2022/08/26 01:37:24;;;;;;;3.83;0.93;;;19.50;99.90;;;;;;4806230;29;20050;-83
2022/08/26 01:39:54;;;;;;;3.20;0.85;;;19.50;99.90;;;;;;4806465;29;20356;-81
2022/08/26 01:42:22;;;;;;;7.50;1.13;;;19.60;99.90;;;;;;4806531;29;20058;-82
2022/08/26 01:45:25;;;;;;;7.03;1.00;;;19.60;99.90;;;;;;4806208;29;20038;-83
2022/08/26 01:47:53;;;;;;;6.90;0.90;;;19.70;99.90;;;;;;4785805;30;20031;-82
2022/08/26 01:50:25;;;;;;;6.28;1.00;;;19.70;99.90;;;;;;4802067;29;20042;-82
2022/08/26 01:52:53;;;;;;;4.47;0.90;;;19.80;99.90;;;;;;4806084;29;20475;-82
2022/08/26 01:55:20;;;;;;;3.17;1.00;;;19.80;99.90;;;;;;4806190;29;20092;-82
2022/08/26 01:57:49;;;;;;;6.30;1.00;;;19.70;99.90;;;;;;4805726;29;20023;-82
2022/08/26 02:00:16;;;;;;;1.67;0.60;;;19.70;99.90;;;;;;4805559;29;20054;-82
2022/08/26 02:02:45;;;;;;;5.70;0.82;;;19.70;99.90;;;;;;4815860;29;20294;-82
2022/08/26 02:05:15;;;;;;;5.85;1.20;;;19.70;99.90;;;;;;4823954;29;20023;-82
2022/08/26 02:07:42;;;;;;;6.03;1.10;;;19.80;99.90;;;;;;4824213;29;20101;-82
2022/08/26 02:10:08;;;;;;;6.90;1.23;;;19.80;99.90;;;;;;4823894;29;20144;-82
2022/08/26 02:12:34;;;;;;;6.97;0.90;;;19.90;99.90;;;;;;4823999;29;20117;-82
2022/08/26 02:15:02;;;;;;;3.33;0.75;;;20.00;99.90;;;;;;4806106;29;20027;-82
2022/08/26 02:17:44;;;;;;;7.78;1.23;;;19.90;99.90;;;;;;4805955;29;20175;-81
2022/08/26 02:20:14;;;;;;;8.38;1.98;;;19.80;99.90;;;;;;4805933;29;20087;-82
2022/08/26 02:22:40;;;;;;;4.85;0.90;;;19.90;99.90;;;;;;4806112;29;20039;-83
2022/08/26 02:25:20;;;;;;;6.05;0.80;;;19.90;99.90;;;;;;4806671;29;20027;-81
2022/08/26 02:27:46;;;;;;;4.95;1.00;;;19.80;99.90;;;;;;4808922;29;20383;-82
2022/08/26 02:30:19;;;;;;;5.00;2.00;;;19.80;99.90;;;;;;4807530;29;20035;-83
2022/08/26 02:32:45;;;;;;;1.52;0.60;;;19.80;99.90;;;;;;4804696;29;20039;-82
2022/08/26 02:35:13;;;;;;;6.03;0.85;;;19.80;99.90;;;;;;4805895;29;20030;-82
2022/08/26 02:37:39;;;;;;;3.25;0.60;;;19.70;99.90;;;;;;4811532;29;20026;-82
2022/08/26 02:40:07;;;;;;;3.58;0.80;;;19.60;99.90;;;;;;4824079;29;20058;-83
2022/08/26 02:42:33;;;;;;;4.03;0.73;;;19.60;99.90;;;;;;4823866;29;20038;-83
2022/08/26 02:44:58;;;;;;;2.85;0.73;;;19.70;99.90;;;;;;4824174;29;20110;-82
2022/08/26 02:47:24;;;;;;;3.70;0.95;;;19.60;99.90;;;;;;4824277;29;20475;-83
2022/08/26 02:49:50;;;;;;;4.18;0.80;;;19.60;99.90;;;;;;4824090;29;20117;-82
2022/08/26 02:52:16;;;;;;;3.50;0.73;;;19.60;99.90;;;;;;4824066;29;20026;-82
2022/08/26 02:54:42;;;;;;;5.18;0.80;;;19.60;99.90;;;;;;4823903;29;20095;-82
2022/08/26 02:57:09;;;;;;;2.53;0.80;;;19.60;99.90;;;;;;4823510;29;20022;-83
2022/08/26 02:59:35;;;;;;;3.67;0.70;;;19.40;99.90;;;;;;4823286;29;20082;-83
2022/08/26 03:02:01;;;;;;;3.72;0.85;;;19.50;99.90;;;;;;4825498;29;20057;-82
2022/08/26 03:04:27;;;;;;;7.05;0.90;;;19.50;99.90;;;;;;4826774;29;20030;-83
2022/08/26 03:06:54;;;;;;;4.03;0.68;;;19.40;99.90;;;;;;4826609;29;20109;-83
2022/08/26 03:09:19;;;;;;;5.30;1.10;;;19.40;99.90;;;;;;4826892;29;20459;-83
2022/08/26 03:11:46;;;;;;;4.53;0.95;;;19.40;99.90;;;;;;4826595;29;20030;-82
2022/08/26 03:14:12;;;;;;;2.50;0.43;;;19.40;99.90;;;;;;4826642;29;20083;-82
2022/08/26 03:16:38;;;;;;;1.65;0.60;;;19.40;99.90;;;;;;4826756;29;20019;-81
2022/08/26 03:19:07;;;;;;;5.72;1.40;;;19.50;99.90;;;;;;4826554;29;20030;-82
2022/08/26 03:21:33;;;;;;;4.63;0.88;;;19.50;99.90;;;;;;4826062;29;20030;-82
2022/08/26 03:23:59;;;;;;;6.93;1.02;;;19.50;99.90;;;;;;4813366;29;20716;-82
2022/08/26 03:26:25;;;;;;;5.53;1.00;;;19.50;99.90;;;;;;4809127;29;20039;-83
2022/08/26 03:31:36;;;;;;;11.02;0.90;;;19.50;99.90;;;;;;4808280;29;20033;-81
2022/08/26 03:34:03;;;;;;;3.67;0.80;;;19.40;99.90;;;;;;4808289;29;20383;-82
2022/08/26 03:36:29;;;;;;;5.85;1.10;;;19.40;99.90;;;;;;4808691;29;20034;-83
2022/08/26 03:38:54;;;;;;;10.10;1.05;;;19.40;99.90;;;;;;4808047;29;20396;-83
2022/08/26 03:41:20;;;;;;;3.25;1.08;;;19.30;99.90;;;;;;4808080;29;20630;-82
2022/08/26 03:43:47;;;;;;;6.75;0.70;;;19.50;99.90;;;;;;4808003;29;20121;-83
2022/08/26 03:46:12;;;;;;;3.03;0.70;;;19.40;99.90;;;;;;4808160;29;20034;-83
2022/08/26 03:48:39;;;;;;;3.95;0.85;;;19.40;99.90;;;;;;4807864;29;20030;-83
2022/08/26 03:51:11;;;;;;;4.90;0.82;;;19.30;99.90;;;;;;4807874;29;20411;-83
2022/08/26 03:53:37;;;;;;;7.03;1.00;;;19.30;99.90;;;;;;4807948;29;20038;-82
2022/08/26 03:56:03;;;;;;;4.40;1.58;;;19.40;99.90;;;;;;4807829;29;20027;-82
2022/08/26 03:58:30;;;;;;;4.78;1.00;;;19.40;99.90;;;;;;4807792;29;20031;-83
2022/08/26 04:00:56;;;;;;;7.70;1.17;;;19.40;99.90;;;;;;4807427;29;20415;-82
2022/08/26 04:06:07;;;;;;;4.68;1.10;;;19.30;99.90;;;;;;4808081;29;20046;-83
2022/08/26 04:08:32;;;;;;;3.45;1.00;;;19.10;99.90;;;;;;4807675;29;20023;-83
2022/08/26 04:11:00;;;;;;;5.15;1.23;;;19.20;99.90;;;;;;4807591;29;20026;-82
2022/08/26 04:13:26;;;;;;;4.38;1.10;;;19.20;99.90;;;;;;4807476;29;20031;-83
2022/08/26 04:15:52;;;;;;;3.25;1.02;;;19.10;99.90;;;;;;4808574;29;20034;-82
2022/08/26 04:18:18;;;;;;;6.82;1.75;;;19.10;99.90;;;;;;4825899;29;20483;-83
2022/08/26 04:20:43;;;;;;;5.95;1.35;;;19.00;99.90;;;;;;4825737;29;20105;-83
2022/08/26 04:23:09;;;;;;;8.65;1.35;;;19.10;99.90;;;;;;4825337;29;20042;-83
2022/08/26 04:25:35;;;;;;;3.80;1.00;;;19.10;99.90;;;;;;4825527;29;20102;-82
2022/08/26 04:28:01;;;;;;;6.93;1.40;;;19.10;99.90;;;;;;4818873;29;20110;-82
2022/08/26 04:30:26;;;;;;;5.50;1.20;;;19.10;99.90;;;;;;4807479;29;20019;-82
2022/08/26 04:32:52;;;;;;;4.43;1.10;;;19.10;99.90;;;;;;4807235;29;20027;-82
2022/08/26 04:35:18;;;;;;;6.82;0.90;;;19.00;99.90;;;;;;4807073;29;20042;-82
2022/08/26 04:37:43;;;;;;;5.05;1.00;;;19.10;99.90;;;;;;4807059;29;20062;-83
2022/08/26 04:40:10;;;;;;;4.65;1.17;;;19.10;99.90;;;;;;4807239;29;20683;-82
2022/08/26 04:42:36;;;;;;;5.18;0.80;;;19.10;99.90;;;;;;4806680;29;20023;-83
2022/08/26 04:45:02;;;;;;;6.00;1.00;;;19.10;99.90;;;;;;4806592;29;20099;-83
2022/08/26 04:47:29;;;;;;;2.45;0.80;;;19.20;99.90;;;;;;4806803;29;20030;-83
2022/08/26 04:49:55;;;;;;;3.15;0.90;;;19.10;99.90;;;;;;4807106;29;20027;-83
2022/08/26 04:52:20;;;;;;;2.80;0.65;;;19.10;99.90;;;;;;4806963;29;20034;-83
2022/08/26 04:54:46;;;;;;;4.20;1.00;;;19.20;99.90;;;;;;4807047;29;20035;-83
2022/08/26 04:57:11;;;;;;;4.65;0.60;;;19.30;99.90;;;;;;4806806;29;20571;-83
2022/08/26 04:59:37;;;;;;;3.78;1.30;;;19.20;99.90;;;;;;4806574;29;21067;-83
2022/08/26 05:02:03;;;;;;;5.75;1.10;;;19.20;99.90;;;;;;4806724;29;20061;-83
2022/08/26 05:04:29;;;;;;;4.35;0.80;;;19.30;99.90;;;;;;4806582;29;20042;-83
2022/08/26 05:06:55;;;;;;;3.90;0.70;;;19.40;99.90;;;;;;4806521;29;20035;-82
2022/08/26 05:09:20;;;;;;;5.25;0.90;;;19.30;99.90;;;;;;4806678;29;20027;-83
2022/08/26 05:11:47;;;;;;;5.57;0.80;;;19.20;99.90;;;;;;4805375;29;20384;-82
2022/08/26 05:14:13;;;;;;;3.35;0.88;;;19.30;99.90;;;;;;4819451;29;20056;-82
2022/08/26 05:16:38;;;;;;;3.55;0.65;;;19.30;99.90;;;;;;4824824;29;20066;-83
2022/08/26 05:19:05;;;;;;;4.95;0.85;;;19.30;99.90;;;;;;4824916;29;20034;-83
2022/08/26 05:21:32;;;;;;;4.15;0.80;;;19.30;99.90;;;;;;4818358;29;20019;-82
2022/08/26 05:23:59;;;;;;;5.38;0.70;;;19.40;99.90;;;;;;4805588;29;20055;-83
2022/08/26 05:26:27;;;;;;;3.35;1.15;;;19.30;99.90;;;;;;4806573;29;20027;-83
2022/08/26 05:28:55;;;;;;;3.78;0.65;;;19.30;99.90;;;;;;4806844;29;20046;-83
2022/08/26 05:31:30;;;;;;;5.78;1.00;;;19.40;99.90;;;;;;4809500;29;20027;-83
2022/08/26 05:34:00;;;;;;;2.75;0.73;;;19.40;99.90;;;;;;4816626;29;20065;-83
2022/08/26 05:36:28;;;;;;;2.13;0.65;;;19.30;99.90;;;;;;4817641;29;20023;-84
2022/08/26 05:38:56;;;;;;;4.85;0.75;;;19.30;99.90;;;;;;4814456;29;20600;-84
2022/08/26 05:41:33;;;;;;;5.57;1.25;;;19.40;99.90;;;;;;4810773;29;20084;-84
2022/08/26 05:44:01;;;;;;;4.97;1.02;;;19.30;99.90;;;;;;4810911;29;20066;-83
2022/08/26 05:46:27;;;;;;;4.63;0.73;;;19.50;99.90;;;;;;4823223;29;20105;-84
2022/08/26 05:48:54;;;;;;;6.03;0.75;;;19.50;99.90;;;;;;4828370;29;20042;-83
2022/08/26 05:51:20;;;;;;;4.28;1.15;;;19.40;99.90;;;;;;4825965;29;20074;-83
2022/08/26 05:53:46;;;;;;;4.43;0.70;;;19.50;99.90;;;;;;4829840;29;20026;-82
2022/08/26 05:56:12;;;;;;;6.57;0.90;;;19.30;99.90;;;;;;4834584;29;20022;-82
2022/08/26 05:58:39;;;;;;;6.35;1.00;;;19.60;99.90;;;;;;4827110;29;20050;-83
2022/08/26 06:01:09;;;;;;;3.15;0.82;;;19.60;99.90;;;;;;4827119;29;20054;-83
2022/08/26 06:03:38;;;;;;;4.25;0.93;;;19.60;99.90;;;;;;4816188;29;20114;-84
2022/08/26 06:06:06;;;;;;;4.80;0.60;;;19.60;99.90;;;;;;4808617;29;20359;-83
2022/08/26 06:08:33;;;;;;;2.50;0.57;;;19.60;99.90;;;;;;4814767;29;20038;-83
2022/08/26 06:11:01;;;;;;;5.85;1.02;;;19.70;99.90;;;;;;4809475;29;20027;-84
2022/08/26 06:14:06;;;;;;;8.65;0.88;;;19.80;99.90;;;;;;4821204;29;20034;-83
2022/08/26 06:16:37;;;;;;;8.95;1.15;;;19.80;99.90;;;;;;4814207;29;20586;-83
2022/08/26 06:19:04;;;;;;;5.35;1.10;;;19.80;99.90;;;;;;4820537;29;20112;-83
2022/08/26 06:21:32;;;;;;;5.93;0.90;;;19.90;99.90;;;;;;4825465;29;20031;-84
2022/08/26 06:26:51;;;;;;;2.85;0.57;;;20.10;99.90;;;;;;4829248;29;20122;-84
2022/08/26 06:29:17;;;;;;;5.38;0.88;;;20.00;99.90;;;;;;4813184;29;20030;-83
2022/08/26 06:31:43;;;;;;;2.95;0.65;;;20.00;99.90;;;;;;4818128;29;20033;-84
2022/08/26 06:34:08;;;;;;;3.72;0.63;;;20.00;99.90;;;;;;4808808;29;20035;-84
2022/08/26 06:36:34;;;;;;;2.70;0.90;;;20.00;99.90;;;;;;4810767;29;20031;-83
2022/08/26 06:39:04;;;;;;;2.28;0.47;;;20.10;99.90;;;;;;4812242;29;20023;-84
2022/08/26 06:41:33;;;;;;;2.35;0.50;;;20.00;99.90;;;;;;4810366;29;20023;-83
2022/08/26 06:43:59;;;;;;;6.70;1.00;;;20.00;99.90;;;;;;4812485;29;20042;-83
2022/08/26 06:46:25;;;;;;;4.60;0.65;;;20.00;99.90;;;;;;4814023;29;20676;-83
2022/08/26 06:48:52;;;;;;;4.28;0.68;;;19.90;99.90;;;;;;4811650;29;20487;-84
2022/08/26 06:51:21;;;;;;;4.53;0.60;;;19.80;99.90;;;;;;4810247;29;20068;-83
2022/08/26 06:53:49;;;;;;;6.10;0.97;;;19.80;99.90;;;;;;4808766;29;20027;-83
2022/08/26 06:56:17;;;;;;;6.05;0.93;;;19.60;99.90;;;;;;4793008;30;20263;-83
2022/08/26 06:58:43;;;;;;;3.58;0.90;;;19.70;99.90;;;;;;4791472;30;20027;-83
2022/08/26 07:01:20;;;;;;;5.32;0.60;;;19.80;99.90;;;;;;4793158;29;20059;-83
2022/08/26 07:03:47;;;;;;;2.17;0.55;;;19.90;99.90;;;;;;4819566;29;20030;-83
2022/08/26 07:06:13;;;;;;;3.50;0.50;;;20.00;99.90;;;;;;4823692;29;20027;-83
2022/08/26 07:08:39;;;;;;;4.03;0.70;;;20.30;99.90;;;;;;4810097;29;20026;-83
2022/08/26 07:11:06;;;;;;;6.43;0.73;;;20.40;99.90;;;;;;4809333;29;20395;-83
2022/08/26 07:13:35;;;;;;;4.10;0.77;;;20.30;99.90;;;;;;4809469;29;20035;-83
2022/08/26 07:16:08;;;;;;;2.93;0.73;;;20.30;99.90;;;;;;4810407;29;20026;-82
2022/08/26 07:18:35;;;;;;;6.65;0.90;;;20.30;99.90;;;;;;4810825;29;20358;-83
2022/08/26 07:21:15;;;;;;;1.30;0.43;;;20.20;99.90;;;;;;4810976;29;20110;-83
2022/08/26 07:23:41;;;;;;;2.78;0.70;;;20.30;99.90;;;;;;4810112;29;20091;-83
2022/08/26 07:26:10;;;;;;;4.68;0.50;;;20.20;99.90;;;;;;4811931;29;20066;-83
2022/08/26 07:28:37;;;;;;;4.20;0.47;;;20.10;99.90;;;;;;4811389;29;20030;-83
2022/08/26 07:31:04;;;;;;;4.97;0.60;;;20.10;99.90;;;;;;4811962;29;20031;-83
2022/08/26 07:33:30;;;;;;;3.53;0.93;;;20.10;99.90;;;;;;4809808;29;20542;-83
2022/08/26 07:35:55;;;;;;;4.47;1.23;;;19.90;99.90;;;;;;4809671;29;20034;-83
2022/08/26 07:38:27;;;;;;;6.40;0.70;;;19.90;99.90;;;;;;4812675;29;20130;-82
2022/08/26 07:40:53;;;;;;;1.85;0.65;;;19.70;99.90;;;;;;4812859;29;20114;-81
2022/08/26 07:43:19;;;;;;;3.25;0.50;;;19.80;99.90;;;;;;4811926;29;20066;-81
2022/08/26 07:45:44;;;;;;;4.65;0.70;;;19.70;99.90;;;;;;4829633;29;20030;-81
2022/08/26 07:48:11;;;;;;;4.50;0.40;;;19.80;99.90;;;;;;4819115;29;20026;-82
2022/08/26 07:50:37;;;;;;;2.42;0.40;;;20.00;99.90;;;;;;4814116;29;20466;-82
2022/08/26 07:53:05;;;;;;;4.00;1.10;;;20.10;99.90;;;;;;4817434;29;20034;-82
2022/08/26 07:55:30;;;;;;;2.97;0.60;;;20.10;99.90;;;;;;4830245;29;20031;-81
2022/08/26 07:57:56;;;;;;;5.70;1.02;;;20.00;99.90;;;;;;4837242;29;20511;-81
2022/08/26 08:00:23;;;;;;;2.20;0.47;;;20.00;99.90;;;;;;4817182;29;20050;-81
2022/08/26 08:02:49;;;;;;;4.97;0.70;;;20.00;99.90;;;;;;4830878;29;20075;-82
2022/08/26 08:05:19;;;;;;;3.22;0.50;;;20.20;99.90;;;;;;4828430;29;20054;-81
2022/08/26 08:07:45;;;;;;;5.10;0.60;;;20.10;99.90;;;;;;4826606;29;20027;-82
2022/08/26 08:10:22;;;;;;;2.50;0.50;;;20.30;99.90;;;;;;4826680;29;20042;-82
2022/08/26 08:12:48;;;;;;;2.63;0.60;;;20.20;99.90;;;;;;4834792;29;20045;-81
2022/08/26 08:15:16;;;;;;;2.67;0.65;;;20.20;99.90;;;;;;4836033;29;20022;-82
2022/08/26 08:17:42;;;;;;;2.90;0.30;;;20.20;99.90;;;;;;4834007;29;20030;-82
2022/08/26 08:20:09;;;;;;;2.90;0.57;;;20.30;99.90;;;;;;4838889;29;20042;-83
2022/08/26 08:22:35;;;;;;;3.85;0.60;;;20.20;99.90;;;;;;4831041;29;20055;-82
2022/08/26 08:25:01;;;;;;;2.92;0.52;;;20.30;99.90;;;;;;4812878;29;20023;-81
2022/08/26 08:27:27;;;;;;;1.38;0.40;;;20.20;99.90;;;;;;4819169;29;20038;-81
2022/08/26 08:29:53;;;;;;;4.57;0.45;;;20.30;99.90;;;;;;4839791;29;20023;-80
2022/08/26 08:32:20;;;;;;;4.35;0.50;;;20.10;99.90;;;;;;4827865;29;20414;-80
2022/08/26 08:34:46;;;;;;;3.58;0.50;;;20.10;99.90;;;;;;4830952;29;20038;-84
2022/08/26 08:37:12;;;;;;;3.03;0.65;;;20.10;99.90;;;;;;4826163;29;20027;-84
2022/08/26 08:39:37;;;;;;;1.48;0.52;;;20.10;99.90;;;;;;4825869;29;20063;-85
2022/08/26 08:42:24;;;;;;;1.83;0.38;;;20.40;99.90;;;;;;4825925;29;20019;-84
2022/08/26 08:44:51;;;;;;;1.85;0.57;;;20.40;99.90;;;;;;4816015;29;20480;-83
2022/08/26 08:47:30;;;;;;;3.38;0.50;;;20.60;99.90;;;;;;4825827;29;20049;-82
2022/08/26 08:50:02;;;;;;;3.07;0.60;;;20.80;99.90;;;;;;4823066;29;20114;-82
2022/08/26 08:52:36;;;;;;;3.13;0.47;;;20.80;99.90;;;;;;4806248;29;20425;-82
2022/08/26 08:55:04;;;;;;;2.28;0.38;;;20.60;99.90;;;;;;4828302;29;20035;-81
2022/08/26 08:57:54;;;;;;;1.75;0.50;;;20.40;99.90;;;;;;4834618;29;20031;-82
2022/08/26 09:00:23;;;;;;;3.67;0.40;;;20.40;99.90;;;;;;4833458;29;20065;-81
2022/08/26 09:02:58;;;;;;;3.65;0.60;;;20.30;99.90;;;;;;4824678;29;20051;-81
2022/08/26 09:05:27;;;;;;;1.95;0.40;;;20.50;99.90;;;;;;4835458;29;20011;-81
2022/08/26 09:08:00;;;;;;;2.47;0.80;;;20.40;99.90;;;;;;4830619;29;20109;-84
2022/08/26 09:10:34;;;;;;;5.38;0.95;;;20.60;99.90;;;;;;4822440;29;20557;-83
2022/08/26 09:13:10;;;;;;;5.07;0.60;;;20.60;99.90;;;;;;4828271;29;20102;-84
2022/08/26 09:16:09;;;;;;;6.57;1.50;;;20.70;99.90;;;;;;4828501;29;20035;-84
2022/08/26 09:19:06;;;;;;;3.38;0.65;;;20.80;99.90;;;;;;4760313;29;20105;-83
2022/08/26 09:21:32;;;;;;;4.70;0.93;;;20.80;99.90;;;;;;4786436;30;20046;-82
2022/08/26 09:23:58;;;;;;;5.10;0.70;;;20.90;99.90;;;;;;4801468;29;20169;-83
2022/08/26 09:26:44;;;;;;;2.75;0.77;;;21.00;99.90;;;;;;4812166;29;20412;-84
2022/08/26 09:29:23;;;;;;;3.38;0.63;;;21.30;99.90;;;;;;4828460;29;20105;-85
2022/08/26 09:31:49;;;;;;;2.60;0.55;;;21.10;99.90;;;;;;4821944;29;20023;-85
2022/08/26 09:34:25;;;;;;;1.75;0.50;;;21.30;99.90;;;;;;4810940;29;20050;-86
2022/08/26 09:36:56;;;;;;;3.95;0.50;;;21.30;99.90;;;;;;4810232;29;20027;-85
2022/08/26 09:39:27;;;;;;;5.00;0.60;;;21.30;99.90;;;;;;4812390;29;20037;-84
2022/08/26 09:42:11;;;;;;;3.28;0.52;;;21.20;99.90;;;;;;4794864;29;20631;-84
2022/08/26 09:45:07;;;;;;;2.80;0.60;;;21.40;99.90;;;;;;4810587;29;20141;-85
2022/08/26 09:47:46;;;;;;;3.38;0.60;;;21.50;99.90;;;;;;4794211;29;20529;-84
2022/08/26 09:50:49;;;;;;;4.40;0.47;;;21.60;99.90;;;;;;4801372;29;20090;-85
2022/08/26 09:53:21;;;;;;;2.38;0.40;;;21.80;99.90;;;;;;4825566;29;20444;-85
2022/08/26 09:55:50;;;;;;;3.60;0.85;;;21.90;99.90;;;;;;4811278;29;20038;-83
2022/08/26 09:58:37;;;;;;;3.80;0.60;;;22.00;99.90;;;;;;4826995;29;20045;-80
2022/08/26 10:01:06;;;;;;;6.63;1.02;;;22.20;99.90;;;;;;4844638;29;20048;-81
2022/08/26 10:03:34;;;;;;;2.40;0.55;;;22.20;99.90;;;;;;4842885;29;20065;-80
2022/08/26 10:06:22;;;;;;;2.60;0.63;;;21.90;99.90;;;;;;4839204;29;20031;-80
2022/08/26 10:08:57;;;;;;;2.42;0.35;;;21.90;99.90;;;;;;4817238;29;20093;-81
2022/08/26 10:11:27;;;;;;;2.15;0.40;;;22.00;99.90;;;;;;4833344;29;20076;-80
2022/08/26 10:14:01;;;;;;;3.03;0.40;;;22.20;99.90;;;;;;4849567;29;20045;-79
2022/08/26 10:16:53;;;;;;;1.58;0.35;;;22.40;99.90;;;;;;4837531;29;20018;-79
2022/08/26 10:19:25;;;;;;;2.45;0.22;;;23.00;99.90;;;;;;4835268;29;20048;-80
2022/08/26 10:22:06;;;;;;;3.15;0.60;;;23.10;99.90;;;;;;4832252;29;20074;-80
2022/08/26 10:24:41;;;;;;;1.45;0.50;;;23.70;99.90;;;;;;4844700;29;20041;-80
2022/08/26 10:27:07;;;;;;;2.55;0.40;;;23.90;99.90;;;;;;4831566;29;20880;-80
2022/08/26 10:29:41;;;;;;;2.47;0.40;;;23.90;99.90;;;;;;4839114;29;20063;-81
2022/08/26 10:32:38;;;;;;;3.10;0.30;;;23.60;99.90;;;;;;4830472;29;20030;-80
2022/08/26 10:35:06;;;;;;;1.38;0.28;;;23.60;99.90;;;;;;4821988;29;20030;-79
2022/08/26 10:37:37;;;;;;;1.38;0.38;;;23.30;99.90;;;;;;4829031;29;20039;-86
2022/08/26 10:40:06;;;;;;;2.20;0.30;;;23.80;99.90;;;;;;4810451;29;20026;-87
2022/08/26 10:42:52;;;;;;;1.15;0.35;;;24.30;99.90;;;;;;4828088;29;20018;-81
2022/08/26 10:45:24;;;;;;;3.05;0.50;;;24.80;99.90;;;;;;4831472;29;20113;-80
2022/08/26 10:47:58;;;;;;;5.55;0.77;;;24.20;99.90;;;;;;4839146;29;20003;-80
2022/08/26 10:50:50;;;;;;;2.90;0.40;;;23.90;99.90;;;;;;4860617;29;20034;-81
2022/08/26 10:53:22;;;;;;;5.90;0.63;;;24.20;99.90;;;;;;4830743;29;20027;-79
2022/08/26 10:56:06;;;;;;;4.15;0.80;;;23.80;99.90;;;;;;4835363;29;20019;-80
2022/08/26 10:58:45;;;;;;;2.83;1.33;;;23.80;99.90;;;;;;4834034;29;20046;-80
2022/08/26 11:04:15;;;;;;;3.72;0.85;;;23.20;99.90;;;;;;4839854;29;20297;-80
2022/08/26 11:06:44;;;;;;;3.17;0.70;;;23.50;99.90;;;;;;4842712;29;20026;-81
2022/08/26 11:09:11;;;;;;;1.45;0.30;;;23.90;99.90;;;;;;4839909;29;20027;-81
2022/08/26 11:11:40;;;;;;;2.17;0.47;;;24.40;99.90;;;;;;4844382;29;20022;-81
2022/08/26 11:14:06;;;;;;;3.97;0.82;;;24.30;99.90;;;;;;4827730;29;20079;-82
2022/08/26 11:16:42;;;;;;;5.15;0.80;;;23.70;99.90;;;;;;4830761;29;20025;-82
2022/08/26 11:19:10;;;;;;;4.22;0.50;;;23.90;99.90;;;;;;4846692;29;21269;-81
2022/08/26 11:21:46;;;;;;;3.90;0.40;;;23.90;99.90;;;;;;4832996;29;20267;-82
2022/08/26 11:24:37;;;;;;;1.05;0.40;;;24.20;99.90;;;;;;4832609;29;20047;-82
2022/08/26 11:27:03;;;;;;;2.88;0.50;;;23.60;99.90;;;;;;4820453;29;20019;-80
2022/08/26 11:30:16;;;;;;;2.25;0.70;;;23.60;99.90;;;;;;4824144;29;20045;-81
2022/08/26 11:32:42;;;;;;;2.30;0.40;;;23.20;99.90;;;;;;4815952;29;20039;-81
2022/08/26 11:35:11;;;;;;;2.28;0.60;;;23.50;99.90;;;;;;4836684;29;20019;-80
2022/08/26 11:37:46;;;;;;;1.50;0.43;;;23.40;99.90;;;;;;4833851;29;20030;-80
2022/08/26 11:40:19;;;;;;;3.20;0.60;;;23.30;99.90;;;;;;4842377;29;20021;-81
2022/08/26 11:42:53;;;;;;;2.67;0.20;;;23.10;99.90;;;;;;4842378;29;20022;-80
2022/08/26 11:45:31;;;;;;;1.75;0.35;;;22.90;99.90;;;;;;4835888;29;20094;-80
2022/08/26 11:47:57;;;;;;;3.78;0.68;;;22.50;99.90;;;;;;4841015;29;20046;-80
2022/08/26 11:50:26;;;;;;;0.95;0.45;;;22.70;99.90;;;;;;4832091;29;20035;-80
2022/08/26 11:53:03;;;;;;;1.23;0.35;;;23.10;99.90;;;;;;4842947;29;20029;-81
2022/08/26 11:55:30;;;;;;;7.10;0.77;;;23.10;99.90;;;;;;4838767;29;20083;-80
2022/08/26 11:57:59;;;;;;;2.95;0.32;;;23.40;99.90;;;;;;4845299;29;20031;-80
2022/08/26 12:00:38;;;;;;;1.43;0.43;;;23.70;99.90;;;;;;4840500;29;20083;-80
2022/08/26 12:03:06;;;;;;;1.33;0.30;;;24.00;99.90;;;;;;4830142;29;20067;-80
2022/08/26 12:05:45;;;;;;;8.43;1.02;;;23.90;99.90;;;;;;4841668;29;20019;-80
2022/08/26 12:08:15;;;;;;;2.83;0.60;;;23.80;99.90;;;;;;4831976;29;20025;-80
2022/08/26 12:10:41;;;;;;;;;;;23.30;99.90;;;;;;4844949;29;20015;-80
2022/08/26 12:13:07;;;;;;;2.90;0.50;;;23.10;99.90;;;;;;4844565;29;19932;-80
2022/08/26 12:15:34;;;;;;;9.75;0.52;;;23.20;99.90;;;;;;4844246;29;20049;-80
2022/08/26 12:18:24;;;;;;;2.13;0.57;;;23.00;99.90;;;;;;4837215;29;20035;-80
2022/08/26 12:20:53;;;;;;;1.10;0.38;;;22.60;99.90;;;;;;4824585;29;20025;-80
2022/08/26 12:23:40;;;;;;;2.05;0.85;;;22.50;99.90;;;;;;4849309;29;20031;-81
2022/08/26 12:26:17;;;;;;;2.20;0.60;;;22.20;99.90;;;;;;4839795;29;20042;-81
2022/08/26 12:28:58;;;;;;;1.77;0.50;;;21.90;99.90;;;;;;4835513;29;20034;-81
2022/08/26 12:31:38;;;;;;;2.00;0.40;;;21.80;99.90;;;;;;4842495;29;20027;-82
2022/08/26 12:34:08;;;;;;;3.83;0.60;;;21.60;99.90;;;;;;4848490;29;20038;-82
2022/08/26 12:36:51;;;;;;;3.33;0.80;;;21.80;99.90;;;;;;4847316;29;20022;-82
2022/08/26 12:39:27;;;;;;;1.38;0.60;;;21.70;99.90;;;;;;4842997;29;20017;-83
2022/08/26 12:41:55;;;;;;;3.60;0.40;;;21.70;99.90;;;;;;4823341;29;20492;-83
2022/08/26 12:45:03;;;;;;;2.25;0.32;;;21.80;99.90;;;;;;4843657;29;20087;-80
2022/08/26 12:47:41;;;;;;;3.25;0.30;;;21.80;99.90;;;;;;4777475;29;20123;-82
2022/08/26 12:50:22;;;;;;;4.18;1.20;;;21.80;99.90;;;;;;4829245;29;20027;-82
2022/08/26 12:53:16;;;;;;;1.55;0.38;;;21.90;99.90;;;;;;4828299;29;20023;-82
2022/08/26 12:55:48;;;;;;;2.17;0.60;;;21.80;99.90;;;;;;4833031;29;20034;-81
2022/08/26 12:58:34;;;;;;;2.40;0.50;;;22.20;99.90;;;;;;4841759;29;20034;-81
2022/08/26 13:01:03;;;;;;;2.90;0.60;;;22.00;99.90;;;;;;4836318;29;20065;-82
2022/08/26 13:03:36;;;;;;;4.78;0.60;;;21.80;99.90;;;;;;4843801;29;20043;-82
2022/08/26 13:06:12;;;;;;;2.80;0.80;;;21.80;99.90;;;;;;4844950;29;20026;-83
2022/08/26 13:08:52;;;;;;;3.28;0.73;;;21.80;99.90;;;;;;4834037;29;20025;-82
2022/08/26 13:11:22;;;;;;;4.15;3.80;;;22.10;99.90;;;;;;4860706;29;20038;-82
2022/08/26 13:13:52;;;;;;;;;;;22.20;99.90;;;;;;4845833;29;20015;-81
2022/08/26 13:16:22;;;;;;;3.38;0.70;;;21.70;99.90;;;;;;4845389;29;19901;-82